createdAt,value
2022-07-29T00:01:44.740Z,17.83
2022-07-29T00:04:13.621Z,17.75
2022-07-29T00:06:42.349Z,17.71
2022-07-29T00:09:10.293Z,17.85
2022-07-29T00:11:38.398Z,17.76
2022-07-29T00:14:06.681Z,17.75
2022-07-29T00:16:34.697Z,17.53
2022-07-29T00:19:04.252Z,17.66
2022-07-29T00:21:32.236Z,17.65
2022-07-29T00:24:00.166Z,17.81
2022-07-29T00:26:32.563Z,17.67
2022-07-29T00:29:31.227Z,17.42
2022-07-29T00:31:49.111Z,17.43
2022-07-29T00:34:36.216Z,17.11
2022-07-29T00:37:04.630Z,17.03
2022-07-29T00:39:32.570Z,16.83
2022-07-29T00:42:00.555Z,17.14
2022-07-29T00:44:28.517Z,17.24
2022-07-29T00:46:56.563Z,17.21
2022-07-29T00:49:26.088Z,16.85
2022-07-29T00:51:54.414Z,16.70
2022-07-29T00:54:22.785Z,16.58
2022-07-29T00:56:51.449Z,16.56
2022-07-29T00:59:19.494Z,16.40
2022-07-29T01:01:47.528Z,16.22
2022-07-29T01:04:15.986Z,16.25
2022-07-29T01:06:46.622Z,16.24
2022-07-29T01:09:15.429Z,16.16
2022-07-29T01:11:44.161Z,16.17
2022-07-29T01:14:12.745Z,16.11
2022-07-29T01:16:47.362Z,16.04
2022-07-29T01:19:36.377Z,16.03
2022-07-29T01:22:18.855Z,15.84
2022-07-29T01:25:08.414Z,15.86
2022-07-29T01:27:46.210Z,15.72
2022-07-29T01:30:15.794Z,15.62
2022-07-29T01:32:45.214Z,15.65
2022-07-29T01:35:19.625Z,15.72
2022-07-29T01:37:52.722Z,14.96
2022-07-29T01:40:22.623Z,15.48
2022-07-29T01:42:52.808Z,15.55
2022-07-29T01:45:25.524Z,15.64
2022-07-29T01:47:59.231Z,15.39
2022-07-29T01:50:33.441Z,15.37
2022-07-29T01:53:03.489Z,15.23
2022-07-29T01:55:34.441Z,15.13
2022-07-29T01:58:03.409Z,15.07
2022-07-29T02:00:33.642Z,14.96
2022-07-29T02:03:04.773Z,14.90
2022-07-29T02:05:33.067Z,14.90
2022-07-29T02:08:01.701Z,14.94
2022-07-29T02:10:31.643Z,14.93
2022-07-29T02:13:00.548Z,14.81
2022-07-29T02:15:31.004Z,14.74
2022-07-29T02:18:02.623Z,14.76
2022-07-29T02:20:32.157Z,14.74
2022-07-29T02:23:01.339Z,14.80
2022-07-29T02:25:36.949Z,14.79
2022-07-29T02:28:06.489Z,15.02
2022-07-29T02:30:35.032Z,14.96
2022-07-29T02:33:05.074Z,14.78
2022-07-29T02:35:34.537Z,14.92
2022-07-29T02:38:21.895Z,14.92
2022-07-29T02:40:50.769Z,14.84
2022-07-29T02:43:20.001Z,14.80
2022-07-29T02:45:51.845Z,14.80
2022-07-29T02:48:25.894Z,14.80
2022-07-29T02:51:08.443Z,14.74
2022-07-29T02:53:37.448Z,14.41
2022-07-29T02:56:09.093Z,14.66
2022-07-29T02:58:40.905Z,14.73
2022-07-29T03:01:16.707Z,14.60
2022-07-29T03:03:49.641Z,14.55
2022-07-29T03:06:37.423Z,14.60
2022-07-29T03:09:12.269Z,14.78
2022-07-29T03:11:49.552Z,14.78
2022-07-29T03:14:20.588Z,14.80
2022-07-29T03:16:49.622Z,14.80
2022-07-29T03:19:19.148Z,14.79
2022-07-29T03:21:47.128Z,14.72
2022-07-29T03:24:30.183Z,14.64
2022-07-29T03:26:58.873Z,14.94
2022-07-29T03:29:33.993Z,15.12
2022-07-29T03:32:04.403Z,15.03
2022-07-29T03:34:39.218Z,14.89
2022-07-29T03:37:07.999Z,14.80
2022-07-29T03:39:41.544Z,14.73
2022-07-29T03:42:10.894Z,14.73
2022-07-29T03:44:39.558Z,14.89
2022-07-29T03:47:08.732Z,15.20
2022-07-29T03:49:38.932Z,15.11
2022-07-29T03:52:07.205Z,14.88
2022-07-29T03:54:35.607Z,14.89
2022-07-29T03:57:04.808Z,14.92
2022-07-29T03:59:33.950Z,14.88
2022-07-29T04:02:02.504Z,15.00
2022-07-29T04:04:30.485Z,15.19
2022-07-29T04:06:59.842Z,15.17
2022-07-29T04:09:27.801Z,15.37
2022-07-29T04:12:03.511Z,15.59
2022-07-29T04:14:33.194Z,15.80
2022-07-29T04:17:01.359Z,15.84
2022-07-29T04:19:29.562Z,15.81
2022-07-29T04:21:59.015Z,16.07
2022-07-29T04:24:27.014Z,16.28
2022-07-29T04:26:55.307Z,16.39
2022-07-29T04:29:23.267Z,16.75
2022-07-29T04:31:51.191Z,17.08
2022-07-29T04:34:19.924Z,16.86
2022-07-29T04:36:48.157Z,17.33
2022-07-29T04:39:22.798Z,17.50
2022-07-29T04:41:52.538Z,17.79
2022-07-29T04:44:28.379Z,17.96
2022-07-29T04:46:57.456Z,18.16
2022-07-29T04:49:25.701Z,18.18
2022-07-29T04:51:53.722Z,18.12
2022-07-29T04:54:23.100Z,17.99
2022-07-29T04:56:51.057Z,18.46
2022-07-29T04:59:19.011Z,18.79
2022-07-29T05:01:47.089Z,18.98
2022-07-29T05:04:15.178Z,19.28
2022-07-29T05:06:43.418Z,19.37
2022-07-29T05:09:11.373Z,19.27
2022-07-29T05:11:40.698Z,19.10
2022-07-29T05:14:08.691Z,18.70
2022-07-29T05:16:36.605Z,18.49
2022-07-29T05:19:04.711Z,18.57
2022-07-29T05:21:32.648Z,18.65
2022-07-29T05:24:00.589Z,18.49
2022-07-29T05:26:28.529Z,18.52
2022-07-29T05:28:58.068Z,18.40
2022-07-29T05:31:26.137Z,18.49
2022-07-29T05:33:54.113Z,18.50
2022-07-29T05:36:22.100Z,18.39
2022-07-29T05:38:50.062Z,18.52
2022-07-29T05:41:18.035Z,18.66
2022-07-29T05:43:46.123Z,18.59
2022-07-29T05:46:16.241Z,18.47
2022-07-29T05:48:44.387Z,18.42
2022-07-29T05:51:13.046Z,18.30
2022-07-29T05:53:41.105Z,18.26
2022-07-29T05:56:09.364Z,17.94
2022-07-29T05:58:37.776Z,17.88
2022-07-29T06:01:05.801Z,17.70
2022-07-29T06:03:35.598Z,17.80
2022-07-29T06:06:03.559Z,17.66
2022-07-29T06:08:31.541Z,17.68
2022-07-29T06:10:59.560Z,17.65
2022-07-29T06:13:27.573Z,17.57
2022-07-29T06:15:55.638Z,17.50
2022-07-29T06:18:24.939Z,17.54
2022-07-29T06:20:54.785Z,17.68
2022-07-29T06:23:23.003Z,17.83
2022-07-29T06:25:50.958Z,17.70
2022-07-29T06:28:18.976Z,17.72
2022-07-29T06:30:47.063Z,18.06
2022-07-29T06:33:18.867Z,18.13
2022-07-29T06:35:53.655Z,18.11
2022-07-29T06:38:33.888Z,17.91
2022-07-29T06:41:03.282Z,17.91
2022-07-29T06:43:34.946Z,17.87
2022-07-29T06:46:03.850Z,17.96
2022-07-29T06:48:31.914Z,18.03
2022-07-29T06:51:00.055Z,18.18
2022-07-29T06:53:29.697Z,18.09
2022-07-29T06:55:59.157Z,17.93
2022-07-29T06:58:27.658Z,17.95
2022-07-29T07:00:55.720Z,17.75
2022-07-29T07:03:24.050Z,17.71
2022-07-29T07:05:52.164Z,17.73
2022-07-29T07:08:20.478Z,17.86
2022-07-29T07:10:49.936Z,18.06
2022-07-29T07:13:18.334Z,18.10
2022-07-29T07:15:46.503Z,18.07
2022-07-29T07:18:14.507Z,18.34
2022-07-29T07:20:42.498Z,18.40
2022-07-29T07:23:10.688Z,18.29
2022-07-29T07:25:38.909Z,18.32
2022-07-29T07:28:08.444Z,18.20
2022-07-29T07:30:36.421Z,18.50
2022-07-29T07:33:04.537Z,18.76
2022-07-29T07:35:32.622Z,18.76
2022-07-29T07:38:00.662Z,18.68
2022-07-29T07:40:28.740Z,18.49
2022-07-29T07:42:56.719Z,18.81
2022-07-29T07:45:26.180Z,18.95
2022-07-29T07:47:54.326Z,19.08
2022-07-29T07:50:22.342Z,19.39
2022-07-29T07:52:52.167Z,19.45
2022-07-29T07:55:20.708Z,19.85
2022-07-29T07:57:49.523Z,20.27
2022-07-29T08:00:18.805Z,20.61
2022-07-29T08:02:48.173Z,20.57
2022-07-29T08:05:18.194Z,20.88
2022-07-29T08:07:47.748Z,20.79
2022-07-29T08:10:16.155Z,20.33
2022-07-29T08:12:45.858Z,20.12
2022-07-29T08:15:13.788Z,20.06
2022-07-29T08:17:42.558Z,20.16
2022-07-29T08:20:13.156Z,19.65
2022-07-29T08:22:41.174Z,19.91
2022-07-29T08:25:09.512Z,20.35
2022-07-29T08:27:44.598Z,20.83
2022-07-29T08:30:13.161Z,20.90
2022-07-29T08:32:53.634Z,20.80
2022-07-29T08:35:25.386Z,20.73
2022-07-29T08:37:53.779Z,20.58
2022-07-29T08:40:30.766Z,21.14
2022-07-29T08:43:00.761Z,20.62
2022-07-29T08:45:30.511Z,20.91
2022-07-29T08:47:58.897Z,20.80
2022-07-29T08:50:28.302Z,20.59
2022-07-29T08:52:59.735Z,20.63
2022-07-29T08:55:28.364Z,21.03
2022-07-29T08:57:57.488Z,21.18
2022-07-29T09:00:26.837Z,21.14
2022-07-29T09:02:59.686Z,21.43
2022-07-29T09:05:30.327Z,21.65
2022-07-29T09:07:58.559Z,21.03
2022-07-29T09:10:26.544Z,21.01
2022-07-29T09:12:54.546Z,20.98
2022-07-29T09:15:22.682Z,21.06
2022-07-29T09:17:51.680Z,21.03
2022-07-29T09:20:21.111Z,20.95
2022-07-29T09:22:51.878Z,20.91
2022-07-29T09:25:34.503Z,20.96
2022-07-29T09:28:08.891Z,21.04
2022-07-29T09:30:37.385Z,21.09
2022-07-29T09:33:05.976Z,21.03
2022-07-29T09:35:34.102Z,20.89
2022-07-29T09:38:13.633Z,20.91
2022-07-29T09:40:42.008Z,20.87
2022-07-29T09:43:13.688Z,20.84
2022-07-29T09:45:41.930Z,20.74
2022-07-29T09:48:18.951Z,20.87
2022-07-29T09:50:50.542Z,20.90
2022-07-29T09:53:34.030Z,20.79
2022-07-29T09:56:02.444Z,20.97
2022-07-29T09:58:30.406Z,21.19
2022-07-29T10:00:59.000Z,21.56
2022-07-29T10:03:27.089Z,21.57
2022-07-29T10:06:09.313Z,21.72
2022-07-29T10:08:39.220Z,22.14
2022-07-29T10:11:15.044Z,22.24
2022-07-29T10:13:44.042Z,22.45
2022-07-29T10:16:12.323Z,22.94
2022-07-29T10:18:42.642Z,23.17
2022-07-29T10:21:11.150Z,23.86
2022-07-29T10:23:52.001Z,24.17
2022-07-29T10:26:20.033Z,24.27
2022-07-29T10:28:48.057Z,24.77
2022-07-29T10:31:24.503Z,25.60
2022-07-29T10:34:02.119Z,24.72
2022-07-29T10:36:41.154Z,25.79
2022-07-29T10:39:22.423Z,26.37
2022-07-29T10:42:01.611Z,26.34
2022-07-29T10:44:31.977Z,26.97
2022-07-29T10:47:00.062Z,26.73
2022-07-29T10:49:31.149Z,26.78
2022-07-29T10:52:01.740Z,27.03
2022-07-29T10:54:46.137Z,27.52
2022-07-29T10:57:54.270Z,27.86
2022-07-29T11:00:28.937Z,27.70
2022-07-29T11:02:59.195Z,28.26
2022-07-29T11:05:40.077Z,28.59
2022-07-29T11:08:26.098Z,28.58
2022-07-29T11:11:35.285Z,28.91
2022-07-29T11:14:03.253Z,29.56
2022-07-29T11:17:01.733Z,29.44
2022-07-29T11:19:30.944Z,28.56
2022-07-29T11:21:59.978Z,28.79
2022-07-29T11:24:30.099Z,28.38
2022-07-29T11:27:20.983Z,28.15
2022-07-29T11:29:56.681Z,27.71
2022-07-29T11:32:29.121Z,28.69
2022-07-29T11:35:27.719Z,28.34
2022-07-29T11:38:27.996Z,29.03
2022-07-29T11:41:27.306Z,29.40
2022-07-29T11:43:58.439Z,28.15
2022-07-29T11:46:50.196Z,27.60
2022-07-29T11:52:10.986Z,28.48
2022-07-29T11:54:57.083Z,28.48
2022-07-29T11:57:36.592Z,28.57
2022-07-29T12:00:12.690Z,29.00
2022-07-29T12:02:48.330Z,28.62
2022-07-29T12:05:36.073Z,29.00
2022-07-29T12:08:12.460Z,28.62
2022-07-29T12:10:43.059Z,27.86
2022-07-29T12:13:11.926Z,28.50
2022-07-29T12:15:47.241Z,29.03
2022-07-29T12:18:18.334Z,29.24
2022-07-29T12:20:46.824Z,29.37
2022-07-29T12:23:16.225Z,29.81
2022-07-29T12:25:46.002Z,29.46
2022-07-29T12:28:26.400Z,28.55
2022-07-29T12:30:56.450Z,28.81
2022-07-29T12:33:26.151Z,28.87
2022-07-29T12:36:07.020Z,28.79
2022-07-29T12:38:36.950Z,27.73
2022-07-29T12:41:05.418Z,27.18
2022-07-29T12:43:33.500Z,26.72
2022-07-29T12:46:14.672Z,26.88
2022-07-29T12:48:43.729Z,26.73
2022-07-29T12:51:13.317Z,27.00
2022-07-29T12:53:41.506Z,27.01
2022-07-29T12:56:41.777Z,26.79
2022-07-29T12:59:14.496Z,27.54
2022-07-29T13:01:44.027Z,27.87
2022-07-29T13:04:12.158Z,28.13
2022-07-29T13:06:41.421Z,28.62
2022-07-29T13:09:11.960Z,28.82
2022-07-29T13:11:46.541Z,28.92
2022-07-29T13:14:32.558Z,28.68
2022-07-29T13:17:06.895Z,28.50
2022-07-29T13:19:37.408Z,27.65
2022-07-29T13:22:06.100Z,27.48
2022-07-29T13:24:34.087Z,27.60
2022-07-29T13:27:02.161Z,27.89
2022-07-29T13:29:34.150Z,27.19
2022-07-29T13:32:02.168Z,28.35
2022-07-29T13:34:32.088Z,28.73
2022-07-29T13:37:00.006Z,28.99
2022-07-29T13:39:28.077Z,29.06
2022-07-29T13:41:56.441Z,28.67
2022-07-29T13:44:25.594Z,28.50
2022-07-29T13:46:53.657Z,28.15
2022-07-29T13:49:21.694Z,28.54
2022-07-29T13:51:51.207Z,27.52
2022-07-29T13:54:19.328Z,27.27
2022-07-29T13:56:47.432Z,27.25
2022-07-29T13:59:15.432Z,27.25
2022-07-29T14:01:43.590Z,26.73
2022-07-29T14:04:13.790Z,26.44
2022-07-29T14:06:41.884Z,26.52
2022-07-29T14:09:11.208Z,26.52
2022-07-29T14:11:39.743Z,26.87
2022-07-29T14:14:07.696Z,26.37
2022-07-29T14:16:40.431Z,26.60
2022-07-29T14:19:10.982Z,26.71
2022-07-29T14:21:40.252Z,27.01
2022-07-29T14:24:20.791Z,26.40
2022-07-29T14:26:52.501Z,26.63
2022-07-29T14:29:20.453Z,26.60
2022-07-29T14:31:48.428Z,26.81
2022-07-29T14:34:17.020Z,26.73
2022-07-29T14:36:45.007Z,27.13
2022-07-29T14:39:13.024Z,27.26
2022-07-29T14:41:41.061Z,26.97
2022-07-29T14:44:10.406Z,26.66
2022-07-29T14:46:38.373Z,26.38
2022-07-29T14:49:07.491Z,26.51
2022-07-29T14:51:38.179Z,26.56
2022-07-29T14:54:08.353Z,26.62
2022-07-29T14:56:37.540Z,26.96
2022-07-29T14:59:06.862Z,26.97
2022-07-29T15:01:37.732Z,26.75
2022-07-29T15:04:06.253Z,26.66
2022-07-29T15:06:35.013Z,26.50
2022-07-29T15:09:03.053Z,26.34
2022-07-29T15:11:31.348Z,25.98
2022-07-29T15:14:05.887Z,26.12
2022-07-29T15:16:34.007Z,25.72
2022-07-29T15:19:03.486Z,25.44
2022-07-29T15:21:31.470Z,25.43
2022-07-29T15:23:59.410Z,25.70
2022-07-29T15:26:27.418Z,25.52
2022-07-29T15:28:56.534Z,25.49
2022-07-29T15:31:24.580Z,25.52
2022-07-29T15:33:57.579Z,25.57
2022-07-29T15:36:50.678Z,25.53
2022-07-29T15:39:15.992Z,25.53
2022-07-29T15:41:43.966Z,25.39
2022-07-29T15:44:11.893Z,25.69
2022-07-29T15:46:57.771Z,25.88
2022-07-29T15:49:48.148Z,25.84
2022-07-29T15:52:26.042Z,25.81
2022-07-29T15:54:55.372Z,25.83
2022-07-29T15:57:23.848Z,25.62
2022-07-29T15:59:52.218Z,25.58
2022-07-29T16:02:20.653Z,25.87
2022-07-29T16:04:48.687Z,25.87
2022-07-29T16:07:18.340Z,26.15
2022-07-29T16:09:51.019Z,26.22
2022-07-29T16:12:20.971Z,26.49
2022-07-29T16:14:49.611Z,26.41
2022-07-29T16:17:17.748Z,26.26
2022-07-29T16:19:45.840Z,26.36
2022-07-29T16:22:13.976Z,26.28
2022-07-29T16:24:43.389Z,26.39
2022-07-29T16:27:11.378Z,25.93
2022-07-29T16:29:39.654Z,25.71
2022-07-29T16:32:08.045Z,25.64
2022-07-29T16:34:36.081Z,25.47
2022-07-29T16:37:04.613Z,25.32
2022-07-29T16:39:32.932Z,25.26
2022-07-29T16:42:04.097Z,25.30
2022-07-29T16:44:33.461Z,25.35
2022-07-29T16:47:02.765Z,25.50
2022-07-29T16:49:31.670Z,25.49
2022-07-29T16:51:59.676Z,25.62
2022-07-29T16:54:28.599Z,25.47
2022-07-29T16:56:56.783Z,25.74
2022-07-29T16:59:26.440Z,25.32
2022-07-29T17:01:54.410Z,25.26
2022-07-29T17:04:22.977Z,25.02
2022-07-29T17:06:51.000Z,24.95
2022-07-29T17:09:19.033Z,24.88
2022-07-29T17:11:53.448Z,24.88
2022-07-29T17:14:24.035Z,24.94
2022-07-29T17:17:00.953Z,24.97
2022-07-29T17:19:31.039Z,24.86
2022-07-29T17:22:09.381Z,24.95
2022-07-29T17:24:40.859Z,24.81
2022-07-29T17:27:09.391Z,24.86
2022-07-29T17:29:37.412Z,24.90
2022-07-29T17:32:07.977Z,24.82
2022-07-29T17:34:36.431Z,24.54
2022-07-29T17:37:04.753Z,24.59
2022-07-29T17:39:32.827Z,24.45
2022-07-29T17:42:00.962Z,24.45
2022-07-29T17:44:28.950Z,24.32
2022-07-29T17:46:57.336Z,24.08
2022-07-29T17:49:27.253Z,24.27
2022-07-29T17:51:58.948Z,24.18
2022-07-29T17:54:28.735Z,24.12
2022-07-29T17:56:57.063Z,24.06
2022-07-29T17:59:25.285Z,23.85
2022-07-29T18:01:53.367Z,23.71
2022-07-29T18:04:23.391Z,23.45
2022-07-29T18:06:52.857Z,23.28
2022-07-29T18:09:20.859Z,23.08
2022-07-29T18:11:48.917Z,22.92
2022-07-29T18:14:17.047Z,22.80
2022-07-29T18:16:45.154Z,22.70
2022-07-29T18:19:13.222Z,22.56
2022-07-29T18:21:53.940Z,22.32
2022-07-29T18:24:25.714Z,22.25
2022-07-29T18:26:53.877Z,22.32
2022-07-29T18:29:21.990Z,22.16
2022-07-29T18:31:50.159Z,21.85
2022-07-29T18:34:18.241Z,22.02
2022-07-29T18:36:46.796Z,21.78
2022-07-29T18:39:20.282Z,21.71
2022-07-29T18:41:51.706Z,21.45
2022-07-29T18:44:21.858Z,21.51
2022-07-29T18:46:51.191Z,21.25
2022-07-29T18:49:19.598Z,21.08
2022-07-29T18:51:47.714Z,21.00
2022-07-29T18:54:17.332Z,20.96
2022-07-29T18:56:45.800Z,20.93
2022-07-29T18:59:17.005Z,20.79
2022-07-29T19:01:45.298Z,20.54
2022-07-29T19:04:13.424Z,20.57
2022-07-29T19:06:41.582Z,20.48
2022-07-29T19:09:10.046Z,20.42
2022-07-29T19:11:38.225Z,20.32
2022-07-29T19:14:07.080Z,20.32
2022-07-29T19:16:36.657Z,20.21
2022-07-29T19:19:05.652Z,19.98
2022-07-29T19:21:33.629Z,19.92
2022-07-29T19:24:07.483Z,19.86
2022-07-29T19:26:42.015Z,19.70
2022-07-29T19:29:10.123Z,19.55
2022-07-29T19:31:39.600Z,19.55
2022-07-29T19:34:08.463Z,19.56
2022-07-29T19:36:36.588Z,19.51
2022-07-29T19:39:04.901Z,19.38
2022-07-29T19:41:32.916Z,19.33
2022-07-29T19:44:00.913Z,19.24
2022-07-29T19:46:29.915Z,19.22
2022-07-29T19:48:59.320Z,19.05
2022-07-29T19:51:27.328Z,19.00
2022-07-29T19:53:55.310Z,19.01
2022-07-29T19:56:26.576Z,18.97
2022-07-29T19:58:54.949Z,18.96
2022-07-29T20:01:23.378Z,19.06
2022-07-29T20:03:51.449Z,19.02
2022-07-29T20:06:20.875Z,18.87
2022-07-29T20:08:48.962Z,18.90
2022-07-29T20:11:17.055Z,18.84
2022-07-29T20:13:44.998Z,18.73
2022-07-29T20:16:12.956Z,18.76
2022-07-29T20:18:40.897Z,18.86
2022-07-29T20:21:08.854Z,18.82
2022-07-29T20:23:38.147Z,18.82
2022-07-29T20:26:09.495Z,18.92
2022-07-29T20:28:40.148Z,19.18
2022-07-29T20:31:08.784Z,19.48
2022-07-29T20:33:36.800Z,19.53
2022-07-29T20:36:05.419Z,19.36
2022-07-29T20:38:33.344Z,19.23
2022-07-29T20:41:02.668Z,19.22
2022-07-29T20:43:30.723Z,19.00
2022-07-29T20:46:06.964Z,18.85
2022-07-29T20:48:34.943Z,18.72
2022-07-29T20:51:02.904Z,18.68
2022-07-29T20:53:30.881Z,18.62
2022-07-29T20:55:58.789Z,18.43
2022-07-29T20:58:28.150Z,18.35
2022-07-29T21:00:56.375Z,18.26
2022-07-29T21:03:24.270Z,18.39
2022-07-29T21:05:52.329Z,18.39
2022-07-29T21:08:20.390Z,18.36
2022-07-29T21:10:48.375Z,18.30
2022-07-29T21:13:16.658Z,18.37
2022-07-29T21:15:49.245Z,18.33
2022-07-29T21:18:27.278Z,18.06
2022-07-29T21:20:55.290Z,18.09
2022-07-29T21:23:23.224Z,17.95
2022-07-29T21:25:51.164Z,17.93
2022-07-29T21:28:27.292Z,18.01
2022-07-29T21:30:57.319Z,18.15
2022-07-29T21:33:25.487Z,18.36
2022-07-29T21:38:41.650Z,18.50
2022-07-29T21:41:10.852Z,18.37
2022-07-29T21:43:41.847Z,18.30
2022-07-29T21:46:11.497Z,18.40
2022-07-29T21:48:44.152Z,18.50
2022-07-29T21:51:12.643Z,18.75
2022-07-29T21:53:40.578Z,18.62
2022-07-29T21:56:14.731Z,18.60
2022-07-29T21:58:43.387Z,18.69
2022-07-29T22:01:12.903Z,18.98
2022-07-29T22:03:40.912Z,19.34
2022-07-29T22:06:08.935Z,19.63
2022-07-29T22:08:40.223Z,19.91
2022-07-29T22:11:08.247Z,19.98
2022-07-29T22:13:36.974Z,20.04
2022-07-29T22:16:05.354Z,20.03
2022-07-29T22:18:34.766Z,19.98
2022-07-29T22:21:02.852Z,19.90
2022-07-29T22:23:30.823Z,19.91
2022-07-29T22:25:58.760Z,19.87
2022-07-29T22:28:26.687Z,19.77
2022-07-29T22:30:54.668Z,19.68
2022-07-29T22:33:23.768Z,19.81
2022-07-29T22:35:53.076Z,19.87
2022-07-29T22:38:21.029Z,19.79
2022-07-29T22:40:51.147Z,19.72
2022-07-29T22:43:19.503Z,19.73
2022-07-29T22:45:47.506Z,19.83
2022-07-29T22:48:15.527Z,19.85
2022-07-29T22:50:43.474Z,19.74
2022-07-29T22:53:12.831Z,19.74
2022-07-29T22:55:40.819Z,19.85
2022-07-29T22:58:08.786Z,19.80
2022-07-29T23:00:36.831Z,19.71
2022-07-29T23:03:04.799Z,19.58
2022-07-29T23:05:32.761Z,19.60
2022-07-29T23:08:00.889Z,19.63
2022-07-29T23:10:30.404Z,19.61
2022-07-29T23:12:58.365Z,19.54
2022-07-29T23:15:26.681Z,19.48
2022-07-29T23:17:54.820Z,19.24
2022-07-29T23:20:22.709Z,19.33
2022-07-29T23:22:50.650Z,19.35
2022-07-29T23:25:18.604Z,19.27
2022-07-29T23:27:47.911Z,19.20
2022-07-29T23:30:15.806Z,19.06
2022-07-29T23:32:43.785Z,18.79
2022-07-29T23:35:11.680Z,18.74
2022-07-29T23:37:39.827Z,18.63
2022-07-29T23:40:14.010Z,18.50
2022-07-29T23:42:43.233Z,18.55
2022-07-29T23:45:13.935Z,18.42
2022-07-29T23:47:42.681Z,18.23
2022-07-29T23:50:12.475Z,18.35
2022-07-29T23:52:41.742Z,18.21
2022-07-29T23:55:37.594Z,18.07
2022-07-29T23:57:57.842Z,17.98
